Terminal Aerodrome Forecast
Issued by NWS

Home | Current Version | Previous Version | Text Only | Print | Product List | Glossary On
Versions: 1 2 3 4 5 6 7 8 9 10 11 12
690
FTUS45 KABQ 221723
TAFAEG
TAF
KAEG 221723Z 2218/2318 VRB04KT P6SM SCT250
     FM222000 17006KT P6SM BKN200
     FM230100 19006KT P6SM BKN150
     FM230700 36006KT P6SM BKN150
     FM231600 22006KT P6SM SCT150=

USA.gov is the U.S. government's official web portal to all federal, state and local government web resources and services.